createdAt,value
2022-11-27T00:18:00.707Z,100
2022-11-27T00:38:00.855Z,100
2022-11-27T00:58:00.806Z,100
2022-11-27T01:18:00.997Z,100
2022-11-27T01:38:00.970Z,100
2022-11-27T01:58:00.823Z,100
2022-11-27T02:18:01.027Z,100
2022-11-27T02:38:01.166Z,100
2022-11-27T02:58:01.123Z,100
2022-11-27T03:18:01.262Z,100
2022-11-27T03:38:01.207Z,100
2022-11-27T03:58:01.218Z,100
2022-11-27T04:18:01.425Z,100
2022-11-27T04:38:01.348Z,100
2022-11-27T04:58:01.467Z,100
2022-11-27T05:18:01.512Z,100
2022-11-27T05:38:01.595Z,100
2022-11-27T05:58:01.526Z,100
2022-11-27T06:18:01.694Z,100
2022-11-27T06:38:01.704Z,100
2022-11-27T06:58:01.808Z,100
2022-11-27T07:18:01.767Z,100
2022-11-27T07:38:01.804Z,100
2022-11-27T07:58:01.903Z,100
2022-11-27T08:18:01.921Z,100
2022-11-27T08:38:02.092Z,100
2022-11-27T08:58:02.036Z,100
2022-11-27T09:18:02.106Z,100
2022-11-27T09:38:02.188Z,100
2022-11-27T09:58:02.299Z,100
2022-11-27T10:18:02.295Z,100
2022-11-27T10:38:06.694Z,100
2022-11-27T10:58:02.285Z,100
2022-11-27T11:18:02.378Z,100
2022-11-27T11:38:02.547Z,100
2022-11-27T11:58:02.590Z,100
2022-11-27T12:18:02.612Z,100
2022-11-27T12:38:02.654Z,100
2022-11-27T12:58:02.668Z,100
2022-11-27T13:18:02.766Z,100
2022-11-27T13:38:02.849Z,100
2022-11-27T13:58:02.912Z,100
2022-11-27T14:18:02.797Z,100
2022-11-27T14:38:02.905Z,100
2022-11-27T14:58:02.949Z,100
2022-11-27T15:18:02.954Z,100
2022-11-27T15:38:03.007Z,100
2022-11-27T15:58:03.043Z,100
2022-11-27T16:18:03.188Z,100
2022-11-27T16:38:03.118Z,100
2022-11-27T17:18:03.342Z,100
2022-11-27T17:38:03.351Z,100
2022-11-27T17:58:03.379Z,99.8
2022-11-27T18:18:03.376Z,99.4
2022-11-27T18:38:03.480Z,99.3
2022-11-27T18:58:03.512Z,99.2
2022-11-27T19:18:03.629Z,99.1
2022-11-27T19:38:03.594Z,98.9
2022-11-27T19:58:03.621Z,99
2022-11-27T20:18:03.709Z,98.9
2022-11-27T20:38:03.852Z,98.7
2022-11-27T20:58:03.886Z,98.5
2022-11-27T21:38:03.896Z,98.1
2022-11-27T21:58:03.929Z,98
2022-11-27T22:18:04.044Z,97.8
2022-11-27T22:38:04.036Z,97.5
2022-11-27T22:58:04.071Z,97.2
2022-11-27T23:18:04.232Z,96.9
2022-11-27T23:38:04.230Z,96.5
2022-11-27T23:58:04.350Z,96.2
